createdAt,value
2023-04-26T00:01:59.307Z,7.40
2023-04-26T00:04:29.142Z,7.30
2023-04-26T00:06:56.540Z,7.30
2023-04-26T00:09:23.526Z,7.20
2023-04-26T00:11:50.591Z,7.30
2023-04-26T00:14:17.632Z,7.30
2023-04-26T00:16:44.787Z,7.30
2023-04-26T00:19:12.708Z,7.20
2023-04-26T00:21:40.132Z,7.20
2023-04-26T00:24:08.141Z,7.10
2023-04-26T00:26:35.240Z,7.10
2023-04-26T00:29:04.357Z,7.10
2023-04-26T00:31:31.590Z,7.00
2023-04-26T00:33:58.981Z,6.90
2023-04-26T00:36:26.357Z,6.80
2023-04-26T00:38:53.630Z,6.80
2023-04-26T00:41:20.941Z,6.70
2023-04-26T00:43:47.847Z,6.70
2023-04-26T00:46:15.275Z,6.70
2023-04-26T00:48:42.759Z,6.70
2023-04-26T00:51:10.133Z,6.60
2023-04-26T00:53:37.152Z,6.60
2023-04-26T00:56:06.943Z,6.60
2023-04-26T00:58:34.147Z,6.60
2023-04-26T01:01:01.355Z,6.60
2023-04-26T01:03:30.126Z,6.50
2023-04-26T01:05:58.359Z,6.40
2023-04-26T01:08:25.680Z,6.40
2023-04-26T01:10:53.466Z,6.30
2023-04-26T01:13:21.052Z,6.40
2023-04-26T01:15:48.706Z,6.40
2023-04-26T01:18:15.782Z,6.40
2023-04-26T01:20:43.092Z,6.30
2023-04-26T01:23:11.778Z,6.30
2023-04-26T01:25:38.846Z,6.30
2023-04-26T01:28:06.025Z,6.30
2023-04-26T01:30:33.353Z,6.40
2023-04-26T01:33:00.458Z,6.30
2023-04-26T01:35:27.635Z,6.30
2023-04-26T01:37:54.694Z,6.30
2023-04-26T01:40:22.075Z,6.30
2023-04-26T01:42:49.127Z,6.40
2023-04-26T01:45:16.247Z,6.50
2023-04-26T01:47:43.370Z,6.50
2023-04-26T01:50:10.800Z,6.40
2023-04-26T01:52:37.753Z,6.40
2023-04-26T01:55:05.076Z,6.40
2023-04-26T01:57:32.040Z,6.40
2023-04-26T01:59:59.458Z,6.30
2023-04-26T02:02:26.648Z,6.40
2023-04-26T02:04:54.141Z,6.50
2023-04-26T02:07:21.243Z,6.40
2023-04-26T02:09:48.142Z,6.40
2023-04-26T02:12:15.339Z,6.40
2023-04-26T02:14:42.376Z,6.30
2023-04-26T02:17:10.618Z,6.10
2023-04-26T02:19:37.656Z,6.00
2023-04-26T02:22:06.488Z,5.90
2023-04-26T02:24:33.695Z,5.80
2023-04-26T02:27:03.846Z,5.70
2023-04-26T02:29:43.700Z,5.60
2023-04-26T02:32:12.922Z,5.60
2023-04-26T02:34:40.707Z,5.70
2023-04-26T02:37:07.762Z,5.80
2023-04-26T02:39:34.769Z,5.70
2023-04-26T02:42:01.954Z,5.50
2023-04-26T02:44:31.969Z,5.40
2023-04-26T02:46:59.116Z,5.30
2023-04-26T02:49:26.200Z,5.20
2023-04-26T02:51:53.223Z,5.20
2023-04-26T02:54:20.360Z,5.20
2023-04-26T02:56:47.344Z,5.10
2023-04-26T02:59:14.643Z,5.10
2023-04-26T03:01:41.779Z,5.10
2023-04-26T03:04:09.123Z,5.20
2023-04-26T03:06:36.304Z,5.10
2023-04-26T03:09:05.627Z,5.10
2023-04-26T03:11:32.672Z,5.00
2023-04-26T03:13:59.661Z,5.10
2023-04-26T03:16:28.432Z,5.00
2023-04-26T03:18:55.528Z,5.00
2023-04-26T03:21:22.720Z,5.10
2023-04-26T03:23:49.899Z,5.10
2023-04-26T03:26:16.979Z,5.00
2023-04-26T03:28:44.108Z,4.90
2023-04-26T03:31:11.709Z,4.90
2023-04-26T03:33:38.860Z,4.90
2023-04-26T03:36:06.506Z,4.90
2023-04-26T03:38:33.718Z,4.90
2023-04-26T03:41:00.792Z,4.90
2023-04-26T03:43:27.783Z,4.90
2023-04-26T03:45:55.287Z,4.80
2023-04-26T03:48:22.394Z,4.80
2023-04-26T03:50:49.518Z,4.70
2023-04-26T03:53:16.546Z,4.60
2023-04-26T03:55:43.517Z,4.80
2023-04-26T03:58:10.463Z,4.80
2023-04-26T04:00:38.450Z,4.70
2023-04-26T04:03:07.386Z,4.70
2023-04-26T04:05:35.100Z,4.60
2023-04-26T04:08:02.468Z,4.60
2023-04-26T04:10:29.660Z,4.60
2023-04-26T04:12:56.746Z,4.60
2023-04-26T04:15:24.061Z,4.60
2023-04-26T04:17:51.199Z,4.60
2023-04-26T04:20:18.480Z,4.60
2023-04-26T04:22:45.556Z,4.60
2023-04-26T04:25:13.822Z,4.60
2023-04-26T04:27:45.265Z,4.80
2023-04-26T04:30:14.526Z,4.70
2023-04-26T04:32:47.069Z,4.70
2023-04-26T04:35:15.006Z,4.60
2023-04-26T04:37:44.230Z,4.60
2023-04-26T04:40:13.410Z,4.50
2023-04-26T04:42:40.753Z,4.50
2023-04-26T04:45:08.570Z,4.60
2023-04-26T04:47:37.906Z,4.70
2023-04-26T04:50:06.592Z,4.90
2023-04-26T04:52:33.759Z,4.90
2023-04-26T04:55:01.292Z,4.80
2023-04-26T04:57:28.542Z,4.80
2023-04-26T04:59:55.628Z,4.70
2023-04-26T05:02:23.234Z,4.70
2023-04-26T05:04:50.555Z,4.90
2023-04-26T05:07:18.620Z,4.90
2023-04-26T05:09:45.893Z,5.00
2023-04-26T05:12:13.063Z,5.00
2023-04-26T05:14:40.888Z,5.10
2023-04-26T05:17:07.927Z,5.20
2023-04-26T05:19:34.950Z,5.20
2023-04-26T05:22:02.191Z,5.40
2023-04-26T05:24:31.511Z,5.40
2023-04-26T05:26:59.855Z,5.40
2023-04-26T05:29:33.296Z,5.40
2023-04-26T05:32:00.442Z,5.50
2023-04-26T05:34:27.930Z,5.50
2023-04-26T05:36:54.954Z,5.60
2023-04-26T05:39:22.020Z,5.70
2023-04-26T05:41:49.062Z,5.80
2023-04-26T05:44:16.719Z,6.00
2023-04-26T05:46:43.837Z,5.90
2023-04-26T05:49:11.142Z,6.10
2023-04-26T05:51:38.264Z,6.10
2023-04-26T05:54:05.927Z,6.20
2023-04-26T05:58:25.009Z,6.20
2023-04-26T06:00:52.297Z,6.40
2023-04-26T06:03:20.673Z,6.50
2023-04-26T06:05:48.061Z,6.60
2023-04-26T06:08:15.207Z,6.60
2023-04-26T06:10:42.309Z,6.70
2023-04-26T06:13:09.518Z,6.70
2023-04-26T06:15:36.861Z,6.90
2023-04-26T06:18:05.584Z,6.90
2023-04-26T06:20:33.151Z,7.10
2023-04-26T06:23:00.320Z,7.10
2023-04-26T06:25:27.363Z,7.20
2023-04-26T06:27:54.923Z,7.30
2023-04-26T06:30:22.449Z,7.50
2023-04-26T06:32:50.361Z,7.60
2023-04-26T06:35:17.580Z,7.70
2023-04-26T06:37:44.804Z,7.80
2023-04-26T06:40:14.104Z,8.00
2023-04-26T06:42:41.446Z,8.10
2023-04-26T06:45:09.428Z,8.00
2023-04-26T06:47:36.780Z,7.90
2023-04-26T06:50:05.060Z,8.00
2023-04-26T06:52:32.329Z,8.10
2023-04-26T06:55:03.410Z,8.20
2023-04-26T06:57:30.810Z,8.30
2023-04-26T06:59:58.358Z,8.40
2023-04-26T07:02:25.764Z,8.40
2023-04-26T07:04:53.555Z,8.40
2023-04-26T07:07:21.213Z,8.40
2023-04-26T07:09:48.370Z,8.40
2023-04-26T07:12:15.706Z,8.60
2023-04-26T07:14:43.555Z,8.70
2023-04-26T07:17:11.232Z,8.80
2023-04-26T07:19:38.747Z,8.90
2023-04-26T07:22:06.201Z,8.80
2023-04-26T07:24:33.430Z,8.70
2023-04-26T07:27:01.254Z,8.70
2023-04-26T07:29:28.693Z,8.80
2023-04-26T07:31:57.166Z,8.80
2023-04-26T07:34:24.805Z,8.80
2023-04-26T07:36:52.127Z,8.90
2023-04-26T07:39:19.821Z,8.90
2023-04-26T07:41:47.147Z,8.80
2023-04-26T07:44:14.426Z,9.00
2023-04-26T07:46:41.563Z,9.30
2023-04-26T07:49:09.129Z,9.50
2023-04-26T07:51:37.145Z,9.50
2023-04-26T07:54:04.277Z,9.60
2023-04-26T07:56:31.452Z,9.60
2023-04-26T07:58:58.865Z,9.60
2023-04-26T08:01:26.378Z,9.50
2023-04-26T08:03:55.048Z,9.50
2023-04-26T08:06:23.160Z,9.40
2023-04-26T08:08:54.111Z,9.30
2023-04-26T08:11:21.987Z,9.20
2023-04-26T08:13:49.316Z,9.30
2023-04-26T08:16:16.845Z,9.50
2023-04-26T08:18:46.672Z,9.50
2023-04-26T08:21:14.278Z,9.60
2023-04-26T08:23:41.815Z,9.80
2023-04-26T08:26:09.019Z,10.10
2023-04-26T08:28:36.328Z,10.30
2023-04-26T08:31:03.980Z,10.40
2023-04-26T08:33:31.767Z,10.50
2023-04-26T08:36:01.450Z,10.80
2023-04-26T08:38:29.903Z,11.10
2023-04-26T08:41:02.019Z,11.30
2023-04-26T08:43:37.553Z,11.20
2023-04-26T08:46:11.597Z,10.80
2023-04-26T08:48:39.134Z,10.70
2023-04-26T08:51:07.603Z,10.90
2023-04-26T08:53:36.129Z,11.30
2023-04-26T08:56:04.933Z,11.50
2023-04-26T08:58:32.615Z,11.60
2023-04-26T09:01:02.100Z,11.60
2023-04-26T09:03:30.140Z,11.40
2023-04-26T09:05:58.197Z,11.30
2023-04-26T09:08:25.472Z,11.20
2023-04-26T09:10:52.580Z,11.20
2023-04-26T09:13:19.747Z,11.60
2023-04-26T09:15:48.966Z,12.10
2023-04-26T09:18:20.243Z,12.30
2023-04-26T09:21:06.070Z,12.50
2023-04-26T09:23:33.547Z,12.70
2023-04-26T09:26:17.342Z,12.70
2023-04-26T09:28:46.530Z,12.90
2023-04-26T09:31:45.270Z,13.10
2023-04-26T09:34:14.758Z,13.30
2023-04-26T09:36:52.827Z,13.70
2023-04-26T09:39:38.050Z,14.00
2023-04-26T09:42:06.049Z,14.20
2023-04-26T09:44:33.411Z,14.50
2023-04-26T09:47:02.443Z,14.60
2023-04-26T09:49:43.047Z,14.60
2023-04-26T09:52:10.624Z,14.50
2023-04-26T09:54:51.739Z,14.10
2023-04-26T09:57:22.407Z,14.20
2023-04-26T09:59:55.430Z,14.50
2023-04-26T10:02:24.318Z,14.50
2023-04-26T10:04:56.917Z,14.70
2023-04-26T10:07:26.261Z,15.00
2023-04-26T10:09:55.704Z,15.10
2023-04-26T10:12:23.435Z,15.50
2023-04-26T10:14:50.798Z,15.80
2023-04-26T10:17:20.816Z,15.70
2023-04-26T10:19:51.379Z,15.50
2023-04-26T10:22:27.157Z,15.50
2023-04-26T10:24:55.915Z,15.20
2023-04-26T10:27:44.768Z,15.40
2023-04-26T10:30:16.620Z,15.30
2023-04-26T10:33:07.053Z,14.70
2023-04-26T10:35:38.149Z,14.80
2023-04-26T10:38:08.318Z,15.00
2023-04-26T10:40:41.234Z,15.60
2023-04-26T10:43:11.565Z,16.00
2023-04-26T10:45:39.904Z,16.10
2023-04-26T10:48:18.985Z,16.50
2023-04-26T10:51:12.910Z,16.40
2023-04-26T10:53:49.138Z,16.40
2023-04-26T10:56:39.917Z,16.10
2023-04-26T11:01:46.296Z,16.60
2023-04-26T11:04:13.598Z,17.10
2023-04-26T11:06:51.402Z,17.30
2023-04-26T11:09:38.187Z,17.10
2023-04-26T11:12:07.036Z,17.30
2023-04-26T11:14:37.147Z,17.40
2023-04-26T11:17:05.604Z,17.60
2023-04-26T11:19:33.269Z,17.40
2023-04-26T11:22:00.951Z,17.50
2023-04-26T11:24:31.692Z,17.90
2023-04-26T11:26:59.177Z,17.90
2023-04-26T11:29:27.065Z,17.50
2023-04-26T11:31:58.348Z,17.30
2023-04-26T11:34:41.625Z,17.30
2023-04-26T11:37:08.771Z,17.50
2023-04-26T11:39:36.975Z,17.50
2023-04-26T11:42:11.510Z,17.30
2023-04-26T11:44:40.611Z,17.30
2023-04-26T11:47:08.702Z,17.20
2023-04-26T11:49:39.013Z,17.20
2023-04-26T11:52:06.663Z,17.40
2023-04-26T11:54:35.919Z,17.60
2023-04-26T11:57:16.663Z,17.90
2023-04-26T11:59:44.958Z,18.00
2023-04-26T12:02:13.371Z,17.80
2023-04-26T12:04:41.468Z,17.90
2023-04-26T12:07:09.748Z,18.10
2023-04-26T12:09:42.130Z,17.80
2023-04-26T12:12:09.198Z,18.10
2023-04-26T12:14:40.811Z,18.50
2023-04-26T12:17:08.223Z,18.60
2023-04-26T12:19:37.083Z,18.70
2023-04-26T12:22:08.619Z,19.10
2023-04-26T12:24:37.317Z,19.20
2023-04-26T12:27:06.876Z,19.30
2023-04-26T12:29:35.624Z,19.00
2023-04-26T12:32:04.319Z,18.80
2023-04-26T12:34:31.633Z,19.00
2023-04-26T12:36:58.646Z,19.20
2023-04-26T12:39:25.713Z,19.20
2023-04-26T12:41:52.750Z,19.10
2023-04-26T12:44:21.872Z,18.70
2023-04-26T12:46:49.734Z,18.80
2023-04-26T12:49:16.859Z,18.90
2023-04-26T12:51:43.849Z,19.10
2023-04-26T12:54:10.803Z,19.40
2023-04-26T12:56:43.740Z,19.30
2023-04-26T12:59:11.072Z,19.20
2023-04-26T13:01:38.770Z,19.00
2023-04-26T13:04:06.526Z,18.90
2023-04-26T13:06:35.002Z,18.90
2023-04-26T13:09:02.199Z,19.20
2023-04-26T13:11:29.274Z,19.20
2023-04-26T13:13:56.308Z,19.10
2023-04-26T13:16:23.307Z,19.40
2023-04-26T13:18:51.358Z,19.80
2023-04-26T13:21:18.350Z,20.30
2023-04-26T13:23:46.480Z,20.10
2023-04-26T13:26:15.156Z,19.70
2023-04-26T13:28:42.226Z,19.60
2023-04-26T13:31:09.316Z,19.90
2023-04-26T13:33:36.527Z,20.10
2023-04-26T13:36:03.584Z,20.50
2023-04-26T13:38:32.770Z,20.80
2023-04-26T13:41:00.060Z,20.80
2023-04-26T13:43:27.126Z,20.50
2023-04-26T13:45:54.124Z,20.20
2023-04-26T13:48:21.130Z,19.90
2023-04-26T13:50:48.144Z,20.00
2023-04-26T13:53:15.024Z,20.20
2023-04-26T13:55:42.114Z,20.30
2023-04-26T13:58:09.430Z,20.40
2023-04-26T14:00:37.014Z,20.20
2023-04-26T14:03:04.169Z,19.70
2023-04-26T14:05:31.504Z,19.60
2023-04-26T14:07:59.017Z,19.80
2023-04-26T14:10:26.312Z,20.10
2023-04-26T14:12:54.868Z,20.20
2023-04-26T14:15:22.618Z,20.40
2023-04-26T14:17:49.917Z,20.30
2023-04-26T14:20:17.153Z,19.80
2023-04-26T14:22:44.142Z,19.30
2023-04-26T14:25:11.115Z,19.10
2023-04-26T14:27:39.586Z,19.20
2023-04-26T14:30:07.616Z,19.50
2023-04-26T14:32:34.542Z,19.70
2023-04-26T14:35:01.540Z,19.90
2023-04-26T14:37:28.451Z,19.70
2023-04-26T14:39:55.405Z,19.50
2023-04-26T14:42:22.430Z,19.70
2023-04-26T14:44:49.790Z,20.00
2023-04-26T14:47:16.753Z,20.10
2023-04-26T14:49:43.701Z,20.40
2023-04-26T14:52:10.693Z,20.50
2023-04-26T14:54:39.075Z,20.70
2023-04-26T14:57:06.183Z,20.20
2023-04-26T14:59:33.718Z,19.70
2023-04-26T15:02:00.831Z,19.60
2023-04-26T15:04:30.571Z,19.70
2023-04-26T15:06:57.777Z,19.90
2023-04-26T15:09:24.991Z,19.80
2023-04-26T15:11:51.910Z,19.60
2023-04-26T15:14:18.986Z,19.50
2023-04-26T15:16:46.001Z,19.60
2023-04-26T15:19:12.947Z,19.50
2023-04-26T15:21:39.987Z,19.50
2023-04-26T15:24:07.821Z,19.50
2023-04-26T15:26:35.397Z,19.60
2023-04-26T15:29:02.460Z,19.80
2023-04-26T15:31:29.663Z,19.80
2023-04-26T15:33:56.863Z,19.90
2023-04-26T15:36:24.157Z,19.90
2023-04-26T15:38:54.365Z,19.60
2023-04-26T15:41:21.467Z,19.10
2023-04-26T15:43:54.524Z,18.60
2023-04-26T15:46:22.470Z,18.30
2023-04-26T15:48:49.654Z,18.20
2023-04-26T15:51:16.919Z,18.00
2023-04-26T15:53:44.235Z,17.70
2023-04-26T15:56:15.534Z,17.80
2023-04-26T15:58:46.497Z,17.70
2023-04-26T16:01:14.766Z,17.80
2023-04-26T16:03:45.612Z,18.20
2023-04-26T16:06:14.171Z,18.50
2023-04-26T16:08:41.656Z,18.80
2023-04-26T16:11:08.946Z,19.00
2023-04-26T16:13:36.205Z,19.40
2023-04-26T16:16:11.238Z,19.50
2023-04-26T16:18:39.922Z,18.90
2023-04-26T16:21:10.026Z,18.80
2023-04-26T16:23:39.552Z,18.60
2023-04-26T16:26:06.808Z,18.80
2023-04-26T16:28:34.353Z,18.90
2023-04-26T16:31:01.562Z,19.00
2023-04-26T16:33:28.850Z,19.30
2023-04-26T16:35:56.163Z,19.70
2023-04-26T16:38:23.849Z,19.90
2023-04-26T16:40:58.117Z,19.90
2023-04-26T16:43:29.085Z,19.90
2023-04-26T16:46:07.747Z,19.80
2023-04-26T16:48:36.276Z,19.70
2023-04-26T16:51:07.657Z,19.40
2023-04-26T16:53:36.107Z,19.30
2023-04-26T16:56:04.155Z,19.30
2023-04-26T16:58:31.177Z,19.40
2023-04-26T17:00:58.610Z,19.50
2023-04-26T17:03:26.738Z,19.30
2023-04-26T17:05:54.130Z,19.20
2023-04-26T17:08:22.122Z,19.40
2023-04-26T17:10:49.336Z,19.30
2023-04-26T17:13:16.456Z,19.30
2023-04-26T17:15:43.864Z,18.70
2023-04-26T17:18:11.345Z,18.20
2023-04-26T17:20:38.853Z,17.60
2023-04-26T17:23:08.324Z,17.10
2023-04-26T17:25:35.563Z,16.80
2023-04-26T17:28:03.012Z,16.50
2023-04-26T17:30:30.868Z,15.90
2023-04-26T17:32:58.011Z,15.30
2023-04-26T17:35:25.276Z,15.10
2023-04-26T17:37:52.657Z,14.80
2023-04-26T17:40:19.771Z,14.60
2023-04-26T17:42:46.997Z,14.30
2023-04-26T17:45:14.825Z,14.20
2023-04-26T17:47:42.941Z,14.20
2023-04-26T17:50:11.088Z,14.00
2023-04-26T17:52:38.609Z,13.80
2023-04-26T17:55:08.307Z,13.60
2023-04-26T17:57:38.445Z,13.50
2023-04-26T18:00:12.925Z,13.50
2023-04-26T18:02:41.248Z,13.20
2023-04-26T18:05:09.191Z,13.10
2023-04-26T18:07:36.377Z,13.00
2023-04-26T18:10:04.250Z,13.00
2023-04-26T18:12:32.143Z,12.90
2023-04-26T18:14:59.932Z,12.80
2023-04-26T18:17:27.515Z,12.70
2023-04-26T18:19:54.652Z,12.60
2023-04-26T18:22:21.703Z,12.70
2023-04-26T18:24:48.745Z,12.70
2023-04-26T18:27:15.789Z,12.60
2023-04-26T18:29:42.835Z,12.60
2023-04-26T18:32:09.988Z,12.60
2023-04-26T18:34:37.353Z,12.40
2023-04-26T18:37:04.985Z,12.50
2023-04-26T18:39:32.200Z,12.40
2023-04-26T18:41:59.363Z,12.50
2023-04-26T18:44:26.774Z,12.40
2023-04-26T18:46:55.912Z,12.40
2023-04-26T18:49:23.876Z,12.30
2023-04-26T18:51:51.176Z,12.10
2023-04-26T18:54:18.221Z,12.00
2023-04-26T18:56:45.594Z,12.00
2023-04-26T18:59:13.019Z,11.90
2023-04-26T19:01:41.120Z,11.70
2023-04-26T19:04:09.668Z,11.70
2023-04-26T19:06:37.105Z,11.70
2023-04-26T19:09:06.139Z,11.70
2023-04-26T19:11:33.381Z,11.70
2023-04-26T19:14:00.469Z,11.60
2023-04-26T19:16:27.796Z,11.70
2023-04-26T19:18:55.230Z,11.70
2023-04-26T19:21:22.525Z,11.70
2023-04-26T19:23:49.858Z,11.60
2023-04-26T19:26:16.948Z,11.60
2023-04-26T19:28:44.081Z,11.70
2023-04-26T19:31:11.300Z,11.70
2023-04-26T19:33:38.615Z,11.70
2023-04-26T19:36:05.828Z,11.70
2023-04-26T19:38:33.164Z,11.70
2023-04-26T19:41:01.251Z,11.70
2023-04-26T19:43:28.304Z,11.60
2023-04-26T19:45:55.341Z,11.50
2023-04-26T19:48:22.394Z,11.50
2023-04-26T19:50:49.447Z,11.40
2023-04-26T19:53:16.498Z,11.30
2023-04-26T19:55:43.624Z,11.30
2023-04-26T19:58:11.086Z,11.30
2023-04-26T20:00:39.948Z,11.30
2023-04-26T20:03:07.239Z,11.30
2023-04-26T20:05:34.688Z,11.20
2023-04-26T20:08:02.072Z,11.20
2023-04-26T20:10:33.924Z,11.20
2023-04-26T20:13:01.581Z,11.00
2023-04-26T20:15:31.044Z,11.10
2023-04-26T20:17:59.494Z,11.10
2023-04-26T20:20:26.580Z,11.00
2023-04-26T20:22:53.678Z,11.00
2023-04-26T20:25:20.935Z,11.00
2023-04-26T20:27:48.625Z,11.00
2023-04-26T20:30:16.328Z,11.00
2023-04-26T20:32:43.512Z,10.90
2023-04-26T20:35:12.803Z,10.80
2023-04-26T20:37:40.174Z,10.80
2023-04-26T20:40:08.336Z,10.70
2023-04-26T20:42:35.617Z,10.80
2023-04-26T20:45:03.101Z,10.80
2023-04-26T20:47:30.406Z,10.80
2023-04-26T20:49:57.497Z,10.70
2023-04-26T20:52:24.553Z,10.70
2023-04-26T20:54:51.706Z,10.70
2023-04-26T20:57:19.207Z,10.80
2023-04-26T20:59:46.321Z,10.80
2023-04-26T21:02:13.594Z,10.70
2023-04-26T21:04:42.784Z,10.60
2023-04-26T21:07:11.045Z,10.60
2023-04-26T21:09:38.088Z,10.60
2023-04-26T21:12:05.667Z,10.70
2023-04-26T21:14:32.895Z,10.80
2023-04-26T21:17:01.254Z,10.80
2023-04-26T21:19:28.476Z,10.80
2023-04-26T21:21:55.786Z,10.60
2023-04-26T21:24:22.971Z,10.50
2023-04-26T21:26:50.214Z,10.50
2023-04-26T21:29:17.550Z,10.60
2023-04-26T21:31:45.591Z,10.50
2023-04-26T21:34:13.113Z,10.50
2023-04-26T21:36:40.498Z,10.50
2023-04-26T21:39:07.873Z,10.40
2023-04-26T21:41:35.116Z,10.40
2023-04-26T21:44:02.196Z,10.40
2023-04-26T21:46:29.593Z,10.40
2023-04-26T21:48:56.855Z,10.30
2023-04-26T21:51:24.518Z,10.40
2023-04-26T21:53:52.634Z,10.20
2023-04-26T21:56:19.852Z,10.20
2023-04-26T21:58:47.003Z,10.10
2023-04-26T22:01:15.701Z,10.10
2023-04-26T22:03:43.195Z,10.20
2023-04-26T22:06:11.099Z,10.20
2023-04-26T22:08:38.795Z,10.20
2023-04-26T22:11:06.021Z,10.20
2023-04-26T22:13:33.145Z,10.10
2023-04-26T22:16:00.500Z,10.20
2023-04-26T22:18:28.660Z,10.10
2023-04-26T22:20:55.698Z,10.20
2023-04-26T22:23:22.805Z,10.20
2023-04-26T22:25:49.859Z,10.10
2023-04-26T22:28:17.059Z,10.00
2023-04-26T22:30:44.241Z,10.00
2023-04-26T22:33:12.436Z,9.90
2023-04-26T22:35:39.806Z,9.80
2023-04-26T22:38:07.144Z,9.90
2023-04-26T22:40:34.465Z,9.80
2023-04-26T22:43:01.887Z,9.80
2023-04-26T22:45:29.034Z,9.80
2023-04-26T22:47:56.208Z,9.80
2023-04-26T22:50:23.754Z,9.80
2023-04-26T22:52:51.089Z,9.80
2023-04-26T22:55:18.644Z,9.70
2023-04-26T22:57:46.414Z,9.70
2023-04-26T23:00:14.764Z,9.70
2023-04-26T23:02:42.226Z,9.60
2023-04-26T23:05:10.326Z,9.60
2023-04-26T23:07:39.011Z,9.50
2023-04-26T23:10:06.954Z,9.50
2023-04-26T23:12:34.326Z,9.50
2023-04-26T23:15:02.030Z,9.50
2023-04-26T23:17:29.180Z,9.40
2023-04-26T23:19:56.571Z,9.40
2023-04-26T23:22:23.749Z,9.30
2023-04-26T23:24:50.847Z,9.30
2023-04-26T23:27:18.894Z,9.30
2023-04-26T23:29:46.008Z,9.30
2023-04-26T23:32:13.364Z,9.20
2023-04-26T23:34:40.587Z,9.20
2023-04-26T23:37:08.223Z,9.10
2023-04-26T23:39:36.060Z,9.10
2023-04-26T23:42:04.064Z,9.00
2023-04-26T23:44:31.349Z,9.00
2023-04-26T23:46:58.591Z,9.00
2023-04-26T23:49:25.669Z,9.00
2023-04-26T23:51:52.931Z,9.00
2023-04-26T23:54:20.064Z,8.90
2023-04-26T23:56:47.164Z,8.90
2023-04-26T23:59:14.974Z,8.90
